Time;durP1;ratioP1;P1;durP2;ratioP2;P2;SDS_P1;SDS_P2;PMS_P1;PMS_P2;Temp;Humidity;BMP_temperature;BMP_pressure;BME280_temperature;BME280_humidity;BME280_pressure;Samples;Min_cycle;Max_cycle;Signal;HPM_P1;HPM_P2
2023/03/07 00:00:13;;;;;;;8.00;1.80;;;6.60;99.90;;;;;;5040683;28;20169;-64
2023/03/07 00:02:39;;;;;;;7.53;1.30;;;6.60;99.90;;;;;;5041792;28;20295;-64
2023/03/07 00:05:05;;;;;;;6.70;1.30;;;6.60;99.90;;;;;;5032995;28;20189;-63
2023/03/07 00:07:31;;;;;;;5.73;1.83;;;6.70;99.90;;;;;;5035177;28;20608;-64
2023/03/07 00:09:57;;;;;;;10.37;1.67;;;6.40;99.90;;;;;;5039319;28;20224;-64
2023/03/07 00:12:23;;;;;;;8.10;1.63;;;6.50;99.90;;;;;;5030081;28;20681;-64
2023/03/07 00:14:49;;;;;;;8.90;1.43;;;6.50;99.90;;;;;;5048969;28;20260;-64
2023/03/07 00:17:14;;;;;;;7.53;1.80;;;6.20;99.90;;;;;;5051478;28;20215;-64
2023/03/07 00:19:43;;;;;;;9.70;1.60;;;6.40;99.90;;;;;;5051159;28;20173;-64
2023/03/07 00:22:10;;;;;;;7.87;1.90;;;6.50;99.90;;;;;;5050315;28;20166;-64
2023/03/07 00:24:36;;;;;;;5.60;1.40;;;6.50;99.90;;;;;;5051263;28;20169;-64
2023/03/07 00:27:02;;;;;;;9.60;1.80;;;6.30;99.90;;;;;;5031419;28;20201;-64
2023/03/07 00:29:28;;;;;;;7.90;1.63;;;6.60;99.90;;;;;;5023541;28;20688;-64
2023/03/07 00:31:53;;;;;;;9.80;1.57;;;6.60;99.90;;;;;;5041535;28;20283;-64
2023/03/07 00:34:19;;;;;;;10.00;1.33;;;6.60;99.90;;;;;;5049591;28;20173;-64
2023/03/07 00:36:44;;;;;;;4.80;1.30;;;6.50;99.90;;;;;;5032495;28;20623;-64
2023/03/07 00:39:11;;;;;;;5.13;1.30;;;6.50;99.90;;;;;;5030869;28;20521;-63
2023/03/07 00:41:36;;;;;;;10.73;1.60;;;6.30;99.90;;;;;;5030323;28;20185;-63
2023/03/07 00:44:02;;;;;;;8.00;1.70;;;6.40;99.90;;;;;;5042118;28;20174;-63
2023/03/07 00:46:28;;;;;;;10.97;1.90;;;6.50;99.90;;;;;;5050644;28;20189;-63
2023/03/07 00:48:54;;;;;;;10.17;1.50;;;6.60;99.90;;;;;;5015907;28;20647;-62
2023/03/07 00:51:21;;;;;;;10.37;1.63;;;6.50;99.90;;;;;;5049726;28;20205;-62
2023/03/07 00:53:47;;;;;;;4.30;1.27;;;6.80;99.90;;;;;;5049371;28;20177;-62
2023/03/07 00:56:19;;;;;;;11.80;1.73;;;6.80;99.90;;;;;;5049052;28;20188;-64
2023/03/07 00:58:45;;;;;;;9.93;1.67;;;9.00;99.90;;;;;;5033537;28;20252;-63
2023/03/07 01:01:14;;;;;;;8.23;1.80;;;6.60;99.90;;;;;;5048626;28;20663;-64
2023/03/07 01:03:40;;;;;;;9.53;1.53;;;6.80;99.90;;;;;;5048510;28;20170;-63
2023/03/07 01:06:11;;;;;;;8.80;1.47;;;6.70;99.90;;;;;;5043857;28;20190;-61
2023/03/07 01:08:36;;;;;;;7.77;1.40;;;6.70;99.90;;;;;;5044073;28;20236;-61
2023/03/07 01:11:04;;;;;;;7.67;1.60;;;6.80;99.90;;;;;;5039194;28;20675;-62
2023/03/07 01:13:31;;;;;;;12.03;1.60;;;6.70;99.90;;;;;;5050437;28;20259;-61
2023/03/07 01:16:07;;;;;;;3.63;1.17;;;6.80;99.90;;;;;;5049899;28;20189;-61
2023/03/07 01:18:32;;;;;;;10.60;1.43;;;7.00;99.90;;;;;;5051091;28;20177;-62
2023/03/07 01:20:58;;;;;;;7.90;1.37;;;6.70;99.90;;;;;;5049194;28;20165;-62
2023/03/07 01:23:24;;;;;;;10.07;1.87;;;6.70;99.90;;;;;;5042762;28;20858;-62
2023/03/07 01:25:49;;;;;;;8.10;1.40;;;6.70;99.90;;;;;;5050886;28;20170;-61
2023/03/07 01:28:15;;;;;;;7.57;1.70;;;6.60;99.90;;;;;;5035044;28;20641;-62
2023/03/07 01:30:41;;;;;;;9.47;1.40;;;6.60;99.90;;;;;;5031042;28;20280;-62
2023/03/07 01:33:08;;;;;;;9.13;1.90;;;6.70;99.90;;;;;;5030884;28;20592;-62
2023/03/07 01:35:39;;;;;;;5.83;1.97;;;6.70;99.90;;;;;;5031031;28;20640;-62
2023/03/07 01:38:05;;;;;;;13.87;1.63;;;6.70;99.90;;;;;;5031126;28;20281;-61
2023/03/07 01:40:31;;;;;;;6.77;1.73;;;6.80;99.90;;;;;;5029549;28;20185;-62
2023/03/07 01:43:32;;;;;;;8.53;1.80;;;6.70;99.90;;;;;;5030618;28;20182;-63
2023/03/07 01:46:28;;;;;;;11.03;1.77;;;6.80;99.90;;;;;;4987567;28;20171;-63
2023/03/07 01:49:06;;;;;;;6.87;1.30;;;6.80;99.90;;;;;;5013635;28;20216;-63
2023/03/07 01:51:33;;;;;;;9.30;1.50;;;7.00;99.90;;;;;;5029542;28;20236;-63
2023/03/07 01:54:00;;;;;;;4.27;1.70;;;6.80;99.90;;;;;;5031912;28;20256;-64
2023/03/07 01:56:26;;;;;;;5.97;1.80;;;6.00;99.90;;;;;;5034395;28;20255;-63
2023/03/07 01:58:53;;;;;;;3.60;1.70;;;6.00;99.90;;;;;;5051107;28;20216;-63
2023/03/07 02:01:19;;;;;;;3.73;1.50;;;5.70;99.90;;;;;;5045587;28;20169;-63
2023/03/07 02:03:56;;;;;;;2.83;1.70;;;5.80;99.90;;;;;;5052398;28;20632;-63
2023/03/07 02:06:26;;;;;;;4.60;2.10;;;5.80;99.90;;;;;;5050196;28;20285;-64
2023/03/07 02:08:54;;;;;;;4.17;2.20;;;5.10;99.90;;;;;;5051270;28;20216;-64
2023/03/07 02:11:20;;;;;;;3.97;2.40;;;4.80;99.90;;;;;;5042436;28;20239;-64
2023/03/07 02:13:46;;;;;;;6.70;2.40;;;5.00;99.90;;;;;;5051084;28;20162;-64
2023/03/07 02:16:12;;;;;;;4.53;2.63;;;4.90;99.90;;;;;;5045228;28;20185;-64
2023/03/07 02:18:43;;;;;;;3.97;2.97;;;4.50;99.90;;;;;;5046779;28;20220;-64
2023/03/07 02:21:40;;;;;;;3.07;2.23;;;7.60;99.90;;;;;;5053446;28;20169;-64
2023/03/07 02:24:18;;;;;;;4.47;1.80;;;4.90;99.90;;;;;;5034931;28;20181;-64
2023/03/07 02:26:49;;;;;;;3.13;1.90;;;4.80;99.90;;;;;;5054109;28;20169;-64
2023/03/07 02:29:15;;;;;;;3.57;1.53;;;4.70;99.90;;;;;;5033318;28;20260;-64
2023/03/07 02:31:41;;;;;;;2.63;1.40;;;4.40;99.90;;;;;;5032618;28;20285;-64
2023/03/07 02:34:26;;;;;;;1.60;1.40;;;4.10;99.90;;;;;;5033685;28;20335;-64
2023/03/07 02:37:05;;;;;;;1.33;1.23;;;4.60;99.90;;;;;;5032801;28;20382;-64
2023/03/07 02:39:31;;;;;;;4.57;1.63;;;4.40;99.90;;;;;;5014653;28;20192;-64
2023/03/07 02:42:03;;;;;;;2.17;1.40;;;4.40;99.90;;;;;;5032981;28;20185;-64
2023/03/07 02:44:29;;;;;;;1.47;1.30;;;4.50;99.90;;;;;;5046034;28;20180;-65
2023/03/07 02:46:54;;;;;;;1.73;1.30;;;4.40;99.90;;;;;;5049893;28;20185;-63
2023/03/07 02:49:20;;;;;;;1.53;1.20;;;;;;;;;;5043869;28;20177;-65
2023/03/07 02:51:46;;;;;;;2.13;1.40;;;4.30;99.90;;;;;;5033171;28;20213;-64
2023/03/07 02:54:12;;;;;;;3.67;1.30;;;3.90;99.90;;;;;;5033196;28;20192;-64
2023/03/07 02:56:37;;;;;;;1.50;1.20;;;4.40;99.90;;;;;;5032814;28;20209;-64
2023/03/07 02:59:03;;;;;;;1.80;1.30;;;4.10;99.90;;;;;;5049927;28;20234;-64
2023/03/07 03:01:28;;;;;;;1.30;1.10;;;4.20;99.90;;;;;;5036875;28;20723;-64
2023/03/07 03:03:54;;;;;;;2.07;1.20;;;4.30;99.90;;;;;;5033730;28;20181;-64
2023/03/07 03:06:20;;;;;;;3.97;1.20;;;;;;;;;;5031718;28;20628;-63
2023/03/07 03:08:46;;;;;;;2.90;1.40;;;4.10;99.90;;;;;;5033232;28;20715;-64
2023/03/07 03:11:12;;;;;;;2.10;1.50;;;4.30;99.90;;;;;;5049513;28;20228;-64
2023/03/07 03:13:38;;;;;;;3.03;1.67;;;;;;;;;;5043810;28;20212;-64
2023/03/07 03:16:04;;;;;;;2.83;1.40;;;4.20;99.90;;;;;;5036363;28;20227;-65
2023/03/07 03:18:30;;;;;;;2.60;1.40;;;4.50;99.90;;;;;;5039092;28;20590;-64
2023/03/07 03:20:56;;;;;;;5.40;1.97;;;3.90;99.90;;;;;;5046699;28;20655;-62
2023/03/07 03:23:22;;;;;;;2.57;1.30;;;4.10;99.90;;;;;;5050236;28;20268;-64
2023/03/07 03:26:04;;;;;;;2.37;1.40;;;3.80;99.90;;;;;;5038863;28;20182;-64
2023/03/07 03:28:30;;;;;;;1.80;1.50;;;7.50;99.90;;;;;;5029497;28;20181;-64
2023/03/07 03:31:14;;;;;;;1.70;1.37;;;4.10;99.90;;;;;;5043477;28;20278;-63
2023/03/07 03:33:40;;;;;;;2.23;1.30;;;4.10;99.90;;;;;;5031031;28;20189;-63
2023/03/07 03:36:09;;;;;;;1.87;1.40;;;3.90;99.90;;;;;;5040118;28;20188;-63
2023/03/07 03:38:34;;;;;;;2.83;1.20;;;3.90;99.90;;;;;;5050657;28;20393;-63
2023/03/07 03:41:05;;;;;;;1.77;1.00;;;3.80;99.90;;;;;;5050220;28;20200;-63
2023/03/07 03:43:31;;;;;;;1.90;1.03;;;;;;;;;;5050891;28;20173;-63
2023/03/07 03:45:57;;;;;;;1.93;0.90;;;3.90;99.90;;;;;;5044967;28;20208;-62
2023/03/07 03:48:23;;;;;;;0.80;0.70;;;3.90;99.90;;;;;;5040482;28;20667;-62
2023/03/07 03:50:48;;;;;;;2.53;0.77;;;3.90;99.90;;;;;;5031435;28;20210;-63
2023/03/07 03:53:14;;;;;;;2.40;1.00;;;4.10;99.90;;;;;;5031034;28;20185;-63
2023/03/07 03:55:40;;;;;;;2.60;0.90;;;;;;;;;;5031888;28;20186;-62
2023/03/07 03:58:06;;;;;;;2.90;0.97;;;3.90;99.90;;;;;;5039015;28;20235;-64
2023/03/07 04:00:31;;;;;;;1.97;0.90;;;3.60;99.90;;;;;;5041500;28;20213;-64
2023/03/07 04:02:57;;;;;;;2.07;0.90;;;4.00;99.90;;;;;;5031867;28;20487;-64
2023/03/07 04:05:23;;;;;;;3.90;0.90;;;3.90;99.90;;;;;;5032337;28;20636;-64
2023/03/07 04:07:48;;;;;;;3.13;1.00;;;3.90;99.90;;;;;;5036841;28;20185;-64
2023/03/07 04:10:14;;;;;;;1.23;0.90;;;3.90;99.90;;;;;;5050636;28;20311;-64
2023/03/07 04:12:40;;;;;;;2.83;1.20;;;3.70;99.90;;;;;;5051091;28;20667;-64
2023/03/07 04:15:07;;;;;;;3.43;1.10;;;4.10;99.90;;;;;;5050449;28;20177;-64
2023/03/07 04:17:33;;;;;;;2.20;0.90;;;4.10;99.90;;;;;;5046706;28;20572;-63
2023/03/07 04:19:59;;;;;;;1.83;1.00;;;3.60;99.90;;;;;;5013567;28;20706;-63
2023/03/07 04:22:25;;;;;;;1.37;0.90;;;3.80;99.90;;;;;;5031468;28;20174;-64
2023/03/07 04:24:50;;;;;;;2.40;1.20;;;3.80;99.90;;;;;;5031852;28;20185;-63
2023/03/07 04:27:16;;;;;;;5.80;1.27;;;5.00;99.90;;;;;;5044573;28;20181;-64
2023/03/07 04:29:42;;;;;;;4.37;1.30;;;4.00;99.90;;;;;;5039681;28;20678;-63
2023/03/07 04:32:08;;;;;;;3.53;1.10;;;;;;;;;;5049177;28;20318;-63
2023/03/07 04:34:33;;;;;;;1.77;1.17;;;3.70;99.90;;;;;;5013368;28;20633;-63
2023/03/07 04:36:59;;;;;;;3.13;1.30;;;;;;;;;;5046548;28;20185;-63
2023/03/07 04:39:25;;;;;;;3.87;1.23;;;3.80;99.90;;;;;;5031462;28;20198;-64
2023/03/07 04:41:51;;;;;;;2.70;1.30;;;3.80;99.90;;;;;;5006883;28;20672;-64
2023/03/07 04:44:16;;;;;;;6.57;1.30;;;3.80;99.90;;;;;;5031324;28;20256;-63
2023/03/07 04:46:42;;;;;;;3.90;1.30;;;3.80;99.90;;;;;;5030949;28;20187;-64
2023/03/07 04:49:08;;;;;;;3.40;1.40;;;4.00;99.90;;;;;;5046493;28;20176;-63
2023/03/07 04:51:33;;;;;;;4.60;1.60;;;3.80;99.90;;;;;;5049583;28;20424;-64
2023/03/07 04:53:59;;;;;;;2.50;1.17;;;3.80;99.90;;;;;;5050870;28;20256;-64
2023/03/07 04:56:25;;;;;;;6.63;1.20;;;3.70;99.90;;;;;;5030384;28;20177;-60
2023/03/07 04:58:51;;;;;;;3.83;1.70;;;3.80;99.90;;;;;;5039438;28;20185;-60
2023/03/07 05:01:17;;;;;;;5.13;2.00;;;3.70;99.90;;;;;;5050455;28;20705;-62
2023/03/07 05:03:43;;;;;;;3.50;1.90;;;3.90;99.90;;;;;;5034143;28;20189;-62
2023/03/07 05:06:13;;;;;;;2.63;1.60;;;4.00;99.90;;;;;;5030749;28;20170;-62
2023/03/07 05:08:39;;;;;;;5.77;1.73;;;3.80;99.90;;;;;;5029620;28;20232;-61
2023/03/07 05:11:05;;;;;;;3.33;1.57;;;3.70;99.90;;;;;;5030765;28;20205;-62
2023/03/07 05:13:30;;;;;;;7.43;1.70;;;3.70;99.90;;;;;;5030172;28;20261;-62
2023/03/07 05:15:57;;;;;;;7.20;1.53;;;3.70;99.90;;;;;;5029529;28;20177;-62
2023/03/07 05:18:23;;;;;;;6.67;1.70;;;3.60;99.90;;;;;;5029860;28;20174;-62
2023/03/07 05:20:49;;;;;;;3.40;1.83;;;3.70;99.90;;;;;;5030428;28;20663;-61
2023/03/07 05:23:15;;;;;;;4.20;2.27;;;3.70;99.90;;;;;;5030725;28;20220;-61
2023/03/07 05:25:40;;;;;;;7.70;2.40;;;3.60;99.90;;;;;;5013653;28;20198;-61
2023/03/07 05:28:06;;;;;;;5.30;2.50;;;4.10;99.90;;;;;;5029830;28;20178;-61
2023/03/07 05:30:31;;;;;;;3.50;2.43;;;3.60;99.90;;;;;;5029250;28;20258;-62
2023/03/07 05:32:57;;;;;;;3.47;1.93;;;3.70;99.90;;;;;;5029805;28;20648;-62
2023/03/07 05:35:24;;;;;;;10.87;2.20;;;3.80;99.90;;;;;;5023006;28;20193;-60
2023/03/07 05:37:50;;;;;;;5.03;2.00;;;3.60;99.90;;;;;;5029960;28;20846;-61
2023/03/07 05:40:17;;;;;;;5.57;2.20;;;3.60;99.90;;;;;;5020159;28;20165;-60
2023/03/07 05:42:43;;;;;;;6.10;2.67;;;3.60;99.90;;;;;;5034538;28;20268;-61
2023/03/07 05:45:09;;;;;;;3.97;2.27;;;4.40;99.90;;;;;;5030986;28;20288;-61
2023/03/07 05:47:36;;;;;;;4.23;2.03;;;3.70;99.90;;;;;;5049457;28;20177;-61
2023/03/07 05:50:02;;;;;;;4.70;1.93;;;3.70;99.90;;;;;;5049603;28;20185;-61
2023/03/07 05:52:28;;;;;;;7.53;2.00;;;3.80;99.90;;;;;;5050443;28;20212;-61
2023/03/07 05:54:54;;;;;;;3.73;1.63;;;3.80;99.90;;;;;;5047414;28;20654;-61
2023/03/07 05:57:20;;;;;;;4.13;1.70;;;3.60;99.90;;;;;;5031335;28;20170;-62
2023/03/07 05:59:45;;;;;;;6.30;2.00;;;3.70;99.90;;;;;;5044444;28;20177;-61
2023/03/07 06:02:11;;;;;;;6.70;2.17;;;3.70;99.90;;;;;;5048131;28;20223;-62
2023/03/07 06:04:36;;;;;;;2.70;1.90;;;3.20;99.90;;;;;;5045281;28;20544;-62
2023/03/07 06:07:02;;;;;;;6.33;1.90;;;3.70;99.90;;;;;;5030071;28;20233;-61
2023/03/07 06:09:29;;;;;;;5.23;1.90;;;3.60;99.90;;;;;;5036599;28;20221;-60
2023/03/07 06:11:55;;;;;;;4.93;1.80;;;3.70;99.90;;;;;;5050287;28;20209;-61
2023/03/07 06:14:20;;;;;;;5.13;1.90;;;3.80;99.90;;;;;;5049183;28;20683;-61
2023/03/07 06:16:46;;;;;;;2.70;2.10;;;3.70;99.90;;;;;;5031327;28;20693;-62
2023/03/07 06:19:12;;;;;;;6.30;2.70;;;3.60;99.90;;;;;;5050091;28;20165;-61
2023/03/07 06:21:37;;;;;;;4.60;2.30;;;3.80;99.90;;;;;;5044188;28;20541;-61
2023/03/07 06:24:04;;;;;;;4.60;1.93;;;3.70;99.90;;;;;;5044828;28;20250;-61
2023/03/07 06:26:30;;;;;;;5.93;2.07;;;4.00;99.90;;;;;;5025197;28;20184;-62
2023/03/07 06:28:55;;;;;;;6.53;2.20;;;3.80;99.90;;;;;;5033932;28;20173;-61
2023/03/07 06:31:21;;;;;;;6.40;2.43;;;3.80;99.90;;;;;;5031137;28;20252;-63
2023/03/07 06:33:47;;;;;;;6.47;2.40;;;3.70;99.90;;;;;;5047633;28;20212;-61
2023/03/07 06:36:16;;;;;;;7.00;2.33;;;3.70;99.90;;;;;;5041080;28;20182;-61
2023/03/07 06:38:42;;;;;;;5.53;2.53;;;3.70;99.90;;;;;;5030811;28;20170;-61
2023/03/07 06:41:08;;;;;;;6.30;2.60;;;3.70;99.90;;;;;;5033826;28;20186;-61
2023/03/07 06:43:34;;;;;;;13.43;2.90;;;3.70;99.90;;;;;;5052386;28;20185;-61
2023/03/07 06:46:00;;;;;;;4.07;2.60;;;3.50;99.90;;;;;;5051404;28;20187;-62
2023/03/07 06:48:26;;;;;;;13.03;3.20;;;;;;;;;;5033526;28;20170;-63
2023/03/07 06:50:52;;;;;;;5.43;2.83;;;3.70;99.90;;;;;;5032718;28;20672;-63
2023/03/07 06:53:18;;;;;;;6.40;2.80;;;3.70;99.90;;;;;;5051506;28;20181;-63
2023/03/07 06:55:48;;;;;;;6.77;2.90;;;3.70;99.90;;;;;;5051529;28;20189;-61
2023/03/07 06:58:14;;;;;;;7.53;3.00;;;3.80;99.90;;;;;;5051156;28;20213;-61
2023/03/07 07:00:39;;;;;;;6.00;2.50;;;3.80;99.90;;;;;;5032491;28;20664;-61
2023/03/07 07:03:05;;;;;;;6.13;2.60;;;3.50;99.90;;;;;;5039216;28;20188;-61
2023/03/07 07:05:30;;;;;;;5.70;3.03;;;3.80;99.90;;;;;;5053130;28;20176;-62
2023/03/07 07:07:56;;;;;;;7.03;2.60;;;3.60;99.90;;;;;;5045602;28;20223;-62
2023/03/07 07:10:22;;;;;;;4.60;2.67;;;3.70;99.90;;;;;;5032752;28;20614;-61
2023/03/07 07:12:47;;;;;;;5.47;2.80;;;3.80;99.90;;;;;;5047524;28;20189;-62
2023/03/07 07:15:13;;;;;;;6.83;2.70;;;3.80;99.90;;;;;;5037533;28;20174;-61
2023/03/07 07:17:39;;;;;;;9.03;3.00;;;3.90;99.90;;;;;;5033282;28;20268;-62
2023/03/07 07:20:06;;;;;;;6.40;2.73;;;3.80;99.90;;;;;;5043858;28;20177;-63
2023/03/07 07:22:32;;;;;;;9.33;2.80;;;3.80;99.90;;;;;;5050767;28;20236;-61
2023/03/07 07:24:57;;;;;;;4.70;2.70;;;3.90;99.90;;;;;;5050505;28;20181;-62
2023/03/07 07:27:23;;;;;;;8.00;2.63;;;3.80;99.90;;;;;;5036381;28;20202;-61
2023/03/07 07:29:49;;;;;;;6.73;3.20;;;3.60;99.90;;;;;;5043041;28;20268;-62
2023/03/07 07:32:14;;;;;;;7.70;2.83;;;3.70;99.90;;;;;;5013711;28;20214;-62
2023/03/07 07:34:40;;;;;;;6.43;3.27;;;4.30;99.90;;;;;;5038393;28;20174;-62
2023/03/07 07:37:06;;;;;;;7.33;3.57;;;3.80;99.90;;;;;;5051388;28;20200;-64
2023/03/07 07:39:32;;;;;;;8.47;3.50;;;4.10;99.90;;;;;;5051688;28;20173;-64
2023/03/07 07:41:57;;;;;;;7.90;3.67;;;3.70;99.90;;;;;;5051034;28;20639;-62
2023/03/07 07:44:23;;;;;;;5.97;2.97;;;3.80;99.90;;;;;;5051262;28;20165;-62
2023/03/07 07:46:49;;;;;;;7.13;3.03;;;3.90;99.90;;;;;;5043356;28;20641;-63
2023/03/07 07:49:14;;;;;;;5.77;3.17;;;3.80;99.90;;;;;;5030948;28;20173;-63
2023/03/07 07:51:40;;;;;;;6.37;3.50;;;5.30;99.90;;;;;;5030851;28;20244;-63
2023/03/07 07:54:08;;;;;;;5.43;3.13;;;4.00;99.90;;;;;;5031896;28;20288;-63
2023/03/07 07:56:34;;;;;;;9.13;3.43;;;4.00;99.90;;;;;;5030480;28;20166;-63
2023/03/07 07:58:59;;;;;;;8.30;4.00;;;4.00;99.90;;;;;;5040897;28;20698;-64
2023/03/07 08:01:25;;;;;;;11.03;3.80;;;4.40;99.90;;;;;;5043961;28;20251;-64
2023/03/07 08:03:51;;;;;;;6.27;3.40;;;4.20;99.90;;;;;;5049305;28;20180;-61
2023/03/07 08:06:21;;;;;;;6.93;3.10;;;4.10;99.90;;;;;;5050325;28;20226;-61
2023/03/07 08:08:48;;;;;;;5.87;3.50;;;4.20;99.90;;;;;;5034314;28;20256;-60
2023/03/07 08:11:14;;;;;;;7.10;3.37;;;4.30;99.90;;;;;;5034099;28;20202;-61
2023/03/07 08:13:40;;;;;;;6.60;3.10;;;4.70;99.90;;;;;;5042460;28;20180;-62
2023/03/07 08:16:19;;;;;;;7.03;3.10;;;4.30;99.90;;;;;;5042534;28;20603;-62
2023/03/07 08:18:56;;;;;;;6.27;2.50;;;4.50;99.90;;;;;;5031738;28;20176;-62
2023/03/07 08:21:23;;;;;;;5.13;2.20;;;4.50;99.90;;;;;;5048210;28;20651;-62
2023/03/07 08:23:49;;;;;;;4.73;2.00;;;4.70;99.90;;;;;;5051084;28;20176;-61
2023/03/07 08:26:16;;;;;;;6.10;2.03;;;4.40;99.90;;;;;;5044321;28;20200;-62
2023/03/07 08:28:42;;;;;;;5.83;1.93;;;4.80;99.90;;;;;;5051699;28;20212;-60
2023/03/07 08:31:10;;;;;;;4.23;2.20;;;4.90;99.90;;;;;;5051586;28;20244;-60
2023/03/07 08:33:36;;;;;;;5.60;2.00;;;5.00;99.90;;;;;;5051492;28;20173;-59
2023/03/07 08:36:03;;;;;;;5.63;1.57;;;5.00;99.90;;;;;;5051475;28;20177;-59
2023/03/07 08:38:28;;;;;;;3.20;1.40;;;5.20;99.90;;;;;;5051364;28;20286;-59
2023/03/07 08:40:59;;;;;;;4.57;1.30;;;5.00;99.90;;;;;;5032266;28;20253;-60
2023/03/07 08:43:26;;;;;;;2.47;1.30;;;4.90;99.90;;;;;;5031985;28;20174;-60
2023/03/07 08:45:52;;;;;;;4.30;1.23;;;4.90;99.90;;;;;;5042436;28;20656;-59
2023/03/07 08:48:19;;;;;;;5.47;1.60;;;4.80;99.90;;;;;;5031070;28;20198;-59
2023/03/07 08:50:45;;;;;;;4.97;1.50;;;4.90;99.90;;;;;;5030027;28;20270;-59
2023/03/07 08:53:13;;;;;;;8.50;1.43;;;4.70;99.90;;;;;;5029389;28;20166;-60
2023/03/07 08:55:39;;;;;;;4.77;2.63;;;4.80;99.90;;;;;;5014339;28;20182;-60
2023/03/07 08:58:04;;;;;;;4.57;1.53;;;4.80;99.90;;;;;;5031172;28;20174;-60
2023/03/07 09:00:30;;;;;;;4.80;1.63;;;4.80;99.90;;;;;;5030440;28;20236;-60
2023/03/07 09:02:57;;;;;;;5.13;1.60;;;;;;;;;;5029678;28;20166;-60
2023/03/07 09:05:23;;;;;;;3.20;1.17;;;5.10;99.90;;;;;;5030872;28;20613;-60
2023/03/07 09:07:49;;;;;;;4.70;1.37;;;4.60;99.90;;;;;;5041014;28;20192;-60
2023/03/07 09:10:16;;;;;;;2.90;1.40;;;4.70;99.90;;;;;;5029391;28;20209;-60
2023/03/07 09:12:42;;;;;;;2.73;1.30;;;4.50;99.90;;;;;;5029339;28;20279;-60
2023/03/07 09:15:08;;;;;;;4.50;1.50;;;4.50;99.90;;;;;;5030704;28;20174;-60
2023/03/07 09:17:33;;;;;;;4.90;1.70;;;4.60;99.90;;;;;;5026909;28;20418;-60
2023/03/07 09:19:59;;;;;;;6.13;1.90;;;4.60;99.90;;;;;;5027854;28;20241;-60
2023/03/07 09:22:26;;;;;;;4.97;1.30;;;4.70;99.90;;;;;;5048444;28;20536;-60
2023/03/07 09:24:52;;;;;;;5.70;1.80;;;4.70;99.90;;;;;;5049439;28;20220;-60
2023/03/07 09:27:17;;;;;;;8.57;1.73;;;4.70;99.90;;;;;;5048944;28;20173;-61
2023/03/07 09:29:43;;;;;;;6.27;1.57;;;5.00;99.90;;;;;;5043763;28;20177;-60
2023/03/07 09:32:09;;;;;;;4.90;1.23;;;5.00;99.90;;;;;;5049805;28;20205;-60
2023/03/07 09:34:35;;;;;;;3.73;1.07;;;4.80;99.90;;;;;;5050299;28;20581;-59
2023/03/07 09:37:00;;;;;;;3.53;1.13;;;4.90;99.90;;;;;;5050532;28;20233;-61
2023/03/07 09:39:26;;;;;;;5.60;1.30;;;5.10;99.90;;;;;;5043753;28;20581;-62
2023/03/07 09:42:23;;;;;;;7.37;1.10;;;5.20;99.90;;;;;;5031901;28;20205;-63
2023/03/07 09:45:16;;;;;;;1.93;0.70;;;5.50;99.90;;;;;;5040411;28;20172;-59
2023/03/07 09:48:14;;;;;;;3.80;1.20;;;5.40;99.90;;;;;;5034716;28;20330;-62
2023/03/07 09:50:45;;;;;;;2.20;0.80;;;5.90;99.90;;;;;;5040520;28;20182;-62
2023/03/07 09:53:51;;;;;;;1.73;0.70;;;5.80;99.90;;;;;;5033700;28;20173;-62
2023/03/07 09:56:25;;;;;;;2.03;0.90;;;5.90;99.90;;;;;;4931537;28;20309;-62
2023/03/07 09:59:02;;;;;;;5.37;1.17;;;6.10;99.90;;;;;;5027608;28;20204;-62
2023/03/07 10:01:32;;;;;;;5.03;1.10;;;6.30;99.90;;;;;;5042452;28;20181;-62
2023/03/07 10:04:04;;;;;;;2.43;0.70;;;6.40;99.90;;;;;;5050010;28;20339;-63
2023/03/07 10:06:37;;;;;;;3.67;0.77;;;6.80;99.90;;;;;;5049615;28;20169;-63
2023/03/07 10:09:17;;;;;;;3.30;0.80;;;7.30;99.90;;;;;;5031264;28;20237;-63
2023/03/07 10:12:16;;;;;;;3.97;0.60;;;8.50;99.90;;;;;;5030070;28;20217;-63
2023/03/07 10:15:13;;;;;;;2.30;0.70;;;7.90;99.90;;;;;;5035659;28;20325;-62
2023/03/07 10:17:48;;;;;;;5.07;0.80;;;8.00;99.90;;;;;;5047277;28;20261;-66
2023/03/07 10:20:16;;;;;;;5.13;0.87;;;8.00;99.90;;;;;;5036065;28;20264;-63
2023/03/07 10:22:57;;;;;;;4.93;0.70;;;7.80;99.90;;;;;;5040901;28;20182;-63
2023/03/07 10:25:58;;;;;;;0.60;0.40;;;7.70;99.90;;;;;;5052973;28;20169;-60
2023/03/07 10:28:27;;;;;;;3.07;0.60;;;7.50;99.90;;;;;;5049900;28;20659;-60
2023/03/07 10:31:22;;;;;;;2.23;0.70;;;7.30;99.90;;;;;;5053811;28;20209;-60
2023/03/07 10:33:50;;;;;;;1.60;0.80;;;7.30;99.90;;;;;;5034878;28;20213;-60
2023/03/07 10:36:56;;;;;;;2.33;0.70;;;7.20;99.90;;;;;;5034537;28;20181;-60
2023/03/07 10:39:50;;;;;;;3.83;0.57;;;7.40;99.90;;;;;;5032522;28;20174;-60
2023/03/07 10:42:18;;;;;;;0.97;0.50;;;7.10;99.90;;;;;;5041745;28;20178;-60
2023/03/07 10:44:44;;;;;;;4.40;0.50;;;7.00;99.90;;;;;;5049417;28;20591;-59
2023/03/07 10:47:21;;;;;;;2.90;0.50;;;7.10;99.90;;;;;;5052935;28;20165;-59
2023/03/07 10:49:49;;;;;;;2.67;0.73;;;7.00;99.90;;;;;;5052603;28;20169;-59
2023/03/07 10:52:30;;;;;;;2.07;0.70;;;7.10;99.90;;;;;;5035242;28;20209;-60
2023/03/07 10:55:35;;;;;;;3.07;0.70;;;7.00;99.90;;;;;;5052108;28;20227;-59
2023/03/07 10:58:20;;;;;;;1.50;0.93;;;7.40;99.90;;;;;;5052105;28;20335;-60
2023/03/07 11:01:07;;;;;;;2.53;0.67;;;7.90;99.90;;;;;;5053518;28;20658;-60
2023/03/07 11:03:51;;;;;;;3.73;0.77;;;8.20;99.90;;;;;;5053087;28;20224;-60
2023/03/07 11:06:52;;;;;;;2.93;0.73;;;8.50;99.90;;;;;;5052214;28;20181;-60
2023/03/07 11:09:34;;;;;;;2.37;0.77;;;8.20;99.90;;;;;;5037751;28;20217;-60
2023/03/07 11:12:08;;;;;;;1.27;0.60;;;8.30;99.90;;;;;;5052197;28;20220;-60
2023/03/07 11:15:08;;;;;;;2.97;1.00;;;8.30;99.90;;;;;;5051919;28;20160;-60
2023/03/07 11:17:47;;;;;;;2.20;0.80;;;8.30;99.90;;;;;;5052031;28;20178;-60
2023/03/07 11:20:23;;;;;;;3.70;1.00;;;8.20;99.90;;;;;;5053137;28;20258;-60
2023/03/07 11:22:59;;;;;;;2.10;0.80;;;8.30;99.90;;;;;;5053087;28;20180;-60
2023/03/07 11:25:25;;;;;;;1.93;0.80;;;8.50;99.90;;;;;;5052927;28;20165;-60
2023/03/07 11:27:54;;;;;;;3.43;0.90;;;8.50;99.90;;;;;;5052296;28;20180;-60
2023/03/07 11:30:20;;;;;;;2.70;1.00;;;8.80;99.90;;;;;;5052992;28;20177;-60
2023/03/07 11:32:49;;;;;;;2.70;1.00;;;9.50;99.90;;;;;;5052936;28;20213;-60
2023/03/07 11:35:31;;;;;;;4.63;0.73;;;9.30;99.90;;;;;;5052816;28;20579;-60
2023/03/07 11:38:11;;;;;;;1.53;0.60;;;9.20;99.90;;;;;;5052672;28;20738;-60
2023/03/07 11:40:50;;;;;;;4.90;0.70;;;9.00;99.90;;;;;;5052668;28;20235;-60
2023/03/07 11:43:23;;;;;;;5.03;0.90;;;9.00;99.90;;;;;;5052667;28;20239;-60
2023/03/07 11:46:07;;;;;;;1.37;0.50;;;9.10;99.90;;;;;;5052616;28;20189;-60
2023/03/07 11:48:32;;;;;;;6.13;0.80;;;9.20;99.90;;;;;;5052493;28;20177;-60
2023/03/07 11:50:59;;;;;;;6.63;1.00;;;9.20;99.90;;;;;;5052525;28;20259;-60
2023/03/07 11:53:28;;;;;;;5.77;0.93;;;9.60;99.90;;;;;;5052680;28;20173;-60
2023/03/07 11:56:16;;;;;;;1.97;0.63;;;9.80;99.90;;;;;;5052354;28;20173;-60
2023/03/07 11:59:03;;;;;;;4.07;0.73;;;9.70;99.90;;;;;;5052205;28;20173;-60
2023/03/07 12:01:48;;;;;;;3.90;0.80;;;9.80;99.90;;;;;;5052185;28;20643;-60
2023/03/07 12:04:25;;;;;;;1.63;0.53;;;9.50;99.90;;;;;;5052081;28;20165;-60
2023/03/07 12:06:57;;;;;;;4.10;0.40;;;9.10;99.90;;;;;;5052111;28;20631;-60
2023/03/07 12:09:44;;;;;;;1.87;0.50;;;8.90;99.90;;;;;;5051947;28;20835;-60
2023/03/07 12:12:39;;;;;;;2.73;0.50;;;8.90;99.90;;;;;;5051893;28;20208;-60
2023/03/07 12:15:25;;;;;;;6.30;0.83;;;9.20;99.90;;;;;;5033943;28;20227;-60
2023/03/07 12:18:28;;;;;;;7.23;0.93;;;9.10;99.90;;;;;;5051987;28;20185;-60
2023/03/07 12:21:26;;;;;;;4.87;0.73;;;9.20;99.90;;;;;;5051794;28;20218;-60
2023/03/07 12:23:59;;;;;;;4.37;0.83;;;9.50;99.90;;;;;;5051805;28;20173;-60
2023/03/07 12:26:31;;;;;;;2.40;0.77;;;9.60;99.90;;;;;;5051688;28;20235;-60
2023/03/07 12:29:31;;;;;;;3.93;0.70;;;9.70;99.90;;;;;;5036866;28;20165;-60
2023/03/07 12:32:03;;;;;;;2.73;0.50;;;9.60;99.90;;;;;;5020059;28;20205;-60
2023/03/07 12:34:43;;;;;;;8.77;1.30;;;9.60;99.90;;;;;;5035759;28;20656;-61
2023/03/07 12:37:12;;;;;;;3.13;0.90;;;9.30;99.90;;;;;;5031374;28;20178;-60
2023/03/07 12:39:45;;;;;;;0.80;0.60;;;8.90;99.90;;;;;;5031624;28;20201;-60
2023/03/07 12:42:40;;;;;;;5.73;0.70;;;8.60;99.90;;;;;;5032682;28;20225;-60
2023/03/07 12:45:06;;;;;;;4.13;0.70;;;8.20;99.90;;;;;;5031583;28;20166;-60
2023/03/07 12:47:53;;;;;;;2.57;1.07;;;8.00;99.90;;;;;;5031710;28;20705;-60
2023/03/07 12:50:27;;;;;;;4.87;1.07;;;8.00;99.90;;;;;;5031348;28;20188;-58
2023/03/07 12:53:24;;;;;;;6.17;1.10;;;8.20;99.90;;;;;;5031030;28;20235;-59
2023/03/07 12:56:04;;;;;;;5.20;1.03;;;8.40;99.90;;;;;;5051035;28;20204;-61
2023/03/07 12:58:42;;;;;;;9.23;1.10;;;8.30;99.90;;;;;;5051266;28;20169;-60
2023/03/07 13:01:24;;;;;;;5.50;1.63;;;8.40;99.90;;;;;;5051161;28;20168;-59
2023/03/07 13:04:02;;;;;;;2.00;0.80;;;8.40;99.90;;;;;;5051102;28;20173;-59
2023/03/07 13:06:29;;;;;;;4.57;1.10;;;8.30;99.90;;;;;;5051016;28;20577;-58
2023/03/07 13:08:59;;;;;;;2.00;0.53;;;8.20;99.90;;;;;;5049232;28;20240;-59
2023/03/07 13:11:28;;;;;;;2.20;0.70;;;8.10;99.90;;;;;;5050541;28;20291;-59
2023/03/07 13:13:58;;;;;;;5.33;1.10;;;8.00;99.90;;;;;;5050894;28;20181;-59
2023/03/07 13:16:44;;;;;;;2.47;0.80;;;8.00;99.90;;;;;;5050950;28;20169;-59